Time;durP1;ratioP1;P1;durP2;ratioP2;P2;SDS_P1;SDS_P2;PMS_P1;PMS_P2;Temp;Humidity;BMP_temperature;BMP_pressure;BME280_temperature;BME280_humidity;BME280_pressure;Samples;Min_cycle;Max_cycle;Signal;HPM_P1;HPM_P2
2024/01/30 00:01:36;;;;;;;22.77;16.25;;;5.10;99.90;;;;;;4997337;28;20042;-61
2024/01/30 00:04:02;;;;;;;27.83;17.20;;;5.10;99.90;;;;;;4993811;28;20078;-61
2024/01/30 00:06:28;;;;;;;25.58;16.73;;;5.20;99.90;;;;;;4992273;28;20041;-61
2024/01/30 00:08:54;;;;;;;27.23;16.67;;;5.20;99.90;;;;;;4988326;28;20122;-61
2024/01/30 00:11:19;;;;;;;23.30;15.35;;;5.30;99.90;;;;;;4997272;28;20430;-61
2024/01/30 00:13:45;;;;;;;20.08;14.52;;;5.30;99.90;;;;;;4994212;28;20069;-62
2024/01/30 00:16:24;;;;;;;21.75;15.10;;;5.30;99.90;;;;;;4988661;28;20037;-62
2024/01/30 00:18:51;;;;;;;22.15;15.02;;;5.30;99.90;;;;;;4997226;28;20499;-62
2024/01/30 00:21:17;;;;;;;23.02;14.85;;;5.20;99.90;;;;;;4997104;28;20034;-61
2024/01/30 00:23:43;;;;;;;22.73;15.27;;;5.20;99.90;;;;;;4997190;28;20048;-61
2024/01/30 00:26:08;;;;;;;28.00;15.07;;;5.20;99.90;;;;;;4990679;28;20509;-62
2024/01/30 00:28:34;;;;;;;22.02;14.25;;;5.10;99.90;;;;;;4997132;28;20507;-62
2024/01/30 00:31:00;;;;;;;20.23;14.20;;;5.10;99.90;;;;;;4992574;28;20049;-61
2024/01/30 00:33:25;;;;;;;21.75;14.75;;;5.10;99.90;;;;;;4995464;28;20410;-61
2024/01/30 00:35:51;;;;;;;23.75;14.68;;;5.10;99.90;;;;;;4995460;28;20034;-61
2024/01/30 00:38:17;;;;;;;20.08;14.13;;;5.10;99.90;;;;;;4989652;28;20037;-62
2024/01/30 00:40:43;;;;;;;20.98;14.40;;;5.10;99.90;;;;;;4992404;28;20041;-62
2024/01/30 00:43:08;;;;;;;19.17;14.45;;;5.10;99.90;;;;;;4997459;28;20401;-61
2024/01/30 00:45:34;;;;;;;22.20;14.05;;;5.00;99.90;;;;;;4991021;28;20514;-61
2024/01/30 00:48:00;;;;;;;21.80;14.80;;;5.00;99.90;;;;;;4993992;28;20070;-62
2024/01/30 00:50:25;;;;;;;22.75;14.60;;;5.00;99.90;;;;;;4984393;28;20398;-61
2024/01/30 00:52:51;;;;;;;18.40;13.95;;;5.00;99.90;;;;;;4992471;28;20038;-62
2024/01/30 00:55:17;;;;;;;24.38;14.88;;;5.10;99.90;;;;;;4995778;28;20026;-62
2024/01/30 00:57:42;;;;;;;20.33;14.45;;;5.10;99.90;;;;;;4996255;28;20042;-61
2024/01/30 01:00:09;;;;;;;23.13;14.98;;;5.20;99.90;;;;;;4994539;28;20030;-62
2024/01/30 01:02:39;;;;;;;21.70;14.23;;;5.20;99.90;;;;;;4989859;28;20042;-62
2024/01/30 01:05:04;;;;;;;20.92;14.75;;;5.20;99.90;;;;;;4993619;28;20041;-62
2024/01/30 01:07:30;;;;;;;23.27;14.90;;;5.20;99.90;;;;;;4992966;28;20411;-61
2024/01/30 01:09:56;;;;;;;22.08;14.32;;;5.20;99.90;;;;;;4996508;28;20034;-61
2024/01/30 01:12:22;;;;;;;20.67;14.55;;;5.30;99.90;;;;;;4992813;28;20038;-62
2024/01/30 01:14:47;;;;;;;23.48;14.50;;;5.30;99.90;;;;;;4987752;28;20104;-61
2024/01/30 01:17:13;;;;;;;22.10;14.25;;;5.30;99.90;;;;;;4996063;28;20423;-61
2024/01/30 01:19:38;;;;;;;25.52;15.50;;;5.30;99.90;;;;;;4995812;28;20076;-62
2024/01/30 01:22:04;;;;;;;22.90;15.80;;;5.30;99.90;;;;;;4993508;28;20460;-62
2024/01/30 01:24:34;;;;;;;24.58;14.40;;;5.20;99.90;;;;;;4993402;28;20038;-62
2024/01/30 01:26:59;;;;;;;24.95;14.95;;;5.20;99.90;;;;;;4995990;28;20046;-61
2024/01/30 01:29:29;;;;;;;22.20;15.55;;;5.20;99.90;;;;;;4995782;28;20073;-62
2024/01/30 01:32:00;;;;;;;25.27;15.02;;;5.20;99.90;;;;;;4996466;28;20495;-61
2024/01/30 01:34:25;;;;;;;22.30;14.95;;;5.20;99.90;;;;;;4993103;28;20035;-62
2024/01/30 01:36:55;;;;;;;23.00;13.82;;;5.20;99.90;;;;;;4994821;28;20572;-61
2024/01/30 01:39:22;;;;;;;25.52;14.40;;;5.10;99.90;;;;;;4991035;28;20124;-61
2024/01/30 01:41:48;;;;;;;21.45;14.25;;;5.20;99.90;;;;;;4995700;28;20069;-61
2024/01/30 01:44:13;;;;;;;19.50;13.75;;;5.10;99.90;;;;;;4994447;28;20089;-62
2024/01/30 01:46:39;;;;;;;19.65;13.80;;;5.10;99.90;;;;;;4994201;28;20082;-62
2024/01/30 01:49:06;;;;;;;18.90;14.48;;;5.10;99.90;;;;;;4996579;28;20042;-62
2024/01/30 01:51:35;;;;;;;21.98;14.40;;;5.00;99.90;;;;;;4990740;28;20105;-61
2024/01/30 01:54:04;;;;;;;23.13;13.30;;;5.00;99.90;;;;;;4988061;28;20631;-61
2024/01/30 01:56:31;;;;;;;19.25;13.98;;;5.00;99.90;;;;;;4981693;28;20431;-61
2024/01/30 01:59:02;;;;;;;22.73;14.23;;;5.00;99.90;;;;;;4995878;28;20038;-61
2024/01/30 02:01:29;;;;;;;21.23;14.02;;;5.00;99.90;;;;;;4994146;28;20145;-62
2024/01/30 02:03:55;;;;;;;23.27;14.20;;;5.00;99.90;;;;;;4985842;28;20045;-62
2024/01/30 02:06:21;;;;;;;22.33;14.30;;;4.90;99.90;;;;;;4990366;28;20039;-61
2024/01/30 02:08:47;;;;;;;21.40;14.18;;;4.90;99.90;;;;;;4990221;28;20044;-62
2024/01/30 02:11:12;;;;;;;20.52;13.50;;;4.90;99.90;;;;;;4994730;28;20057;-61
2024/01/30 02:13:38;;;;;;;20.42;14.02;;;4.90;99.90;;;;;;4993428;28;20380;-61
2024/01/30 02:16:04;;;;;;;18.92;13.55;;;4.90;99.90;;;;;;4990259;28;20047;-62
2024/01/30 02:18:30;;;;;;;20.75;13.65;;;4.90;99.90;;;;;;4994491;28;20145;-61
2024/01/30 02:21:01;;;;;;;24.88;14.90;;;4.90;99.90;;;;;;4989180;28;20117;-62
2024/01/30 02:23:27;;;;;;;;;;;4.90;99.90;;;;;;4987744;28;20368;-62
2024/01/30 02:25:53;;;;;;;25.33;14.52;;;4.90;99.90;;;;;;4987856;28;19929;-61
2024/01/30 02:28:19;;;;;;;21.05;14.05;;;4.90;99.90;;;;;;4994360;28;20116;-62
2024/01/30 02:30:46;;;;;;;21.92;14.57;;;4.90;99.90;;;;;;4986551;28;20426;-61
2024/01/30 02:33:13;;;;;;;21.73;14.13;;;4.80;99.90;;;;;;4994386;28;20042;-61
2024/01/30 02:35:38;;;;;;;20.02;13.25;;;4.90;99.90;;;;;;4985349;28;20077;-61
2024/01/30 02:38:04;;;;;;;21.77;14.20;;;4.90;99.90;;;;;;4996054;28;20073;-61
2024/01/30 02:40:31;;;;;;;20.02;13.45;;;4.90;99.90;;;;;;4994028;28;20042;-61
2024/01/30 02:42:59;;;;;;;20.83;14.23;;;4.90;99.90;;;;;;4994653;28;20035;-62
2024/01/30 02:45:25;;;;;;;22.08;14.85;;;4.80;99.90;;;;;;4993290;28;20549;-61
2024/01/30 02:47:51;;;;;;;19.40;13.25;;;4.90;99.90;;;;;;4993041;28;20042;-61
2024/01/30 02:50:17;;;;;;;22.38;13.85;;;4.80;99.90;;;;;;4992815;28;20088;-61
2024/01/30 02:52:45;;;;;;;20.83;13.85;;;4.80;99.90;;;;;;4989740;28;20063;-61
2024/01/30 02:55:12;;;;;;;22.38;13.73;;;4.80;99.90;;;;;;4992753;28;20041;-62
2024/01/30 02:57:38;;;;;;;20.50;13.50;;;4.80;99.90;;;;;;4994825;28;20073;-61
2024/01/30 03:00:06;;;;;;;22.00;14.30;;;4.80;99.90;;;;;;4995958;28;20456;-61
2024/01/30 03:02:32;;;;;;;23.02;13.85;;;4.80;99.90;;;;;;4988508;28;20050;-62
2024/01/30 03:04:58;;;;;;;23.08;14.55;;;4.90;99.90;;;;;;4985823;28;20030;-61
2024/01/30 03:07:24;;;;;;;24.85;14.50;;;4.90;99.90;;;;;;4987769;28;20035;-61
2024/01/30 03:09:50;;;;;;;28.77;14.48;;;5.00;99.90;;;;;;4993866;28;20181;-62
2024/01/30 03:12:15;;;;;;;23.38;15.18;;;5.00;99.90;;;;;;4993853;28;20193;-61
2024/01/30 03:14:41;;;;;;;23.17;14.70;;;5.10;99.90;;;;;;4993917;28;20042;-61
2024/01/30 03:17:07;;;;;;;22.80;13.80;;;5.10;99.90;;;;;;4995135;28;20033;-61
2024/01/30 03:19:33;;;;;;;20.52;13.98;;;5.10;99.90;;;;;;4993849;28;20038;-61
2024/01/30 03:21:59;;;;;;;24.33;14.10;;;5.10;99.90;;;;;;4993063;28;20034;-61
2024/01/30 03:24:25;;;;;;;21.52;13.20;;;5.10;99.90;;;;;;4994368;28;20518;-61
2024/01/30 03:26:50;;;;;;;24.27;14.43;;;5.10;99.90;;;;;;4994790;28;20038;-61
2024/01/30 03:29:16;;;;;;;22.58;14.48;;;5.10;99.90;;;;;;4989679;28;20042;-61
2024/01/30 03:31:42;;;;;;;21.00;13.98;;;5.10;99.90;;;;;;4992289;28;20640;-62
2024/01/30 03:34:07;;;;;;;20.90;13.93;;;5.10;99.90;;;;;;4993914;28;20060;-62
2024/01/30 03:36:34;;;;;;;23.58;14.25;;;5.10;99.90;;;;;;4986894;28;20118;-61
2024/01/30 03:39:00;;;;;;;20.08;13.23;;;5.20;99.90;;;;;;4990358;28;20423;-61
2024/01/30 03:41:26;;;;;;;20.98;14.10;;;5.10;99.90;;;;;;4993880;28;20034;-62
2024/01/30 03:43:51;;;;;;;22.88;13.32;;;5.10;99.90;;;;;;4995069;28;20042;-61
2024/01/30 03:46:17;;;;;;;22.40;14.00;;;5.10;99.90;;;;;;4993989;28;20411;-61
2024/01/30 03:48:43;;;;;;;22.55;14.25;;;5.10;99.90;;;;;;4988817;28;20085;-62
2024/01/30 03:51:14;;;;;;;21.48;14.40;;;5.20;99.90;;;;;;4993503;28;20042;-61
2024/01/30 03:53:43;;;;;;;;;;;5.20;99.90;;;;;;4992571;28;20043;-61
2024/01/30 03:56:09;;;;;;;22.88;14.18;;;5.30;99.90;;;;;;4995294;28;20416;-61
2024/01/30 03:58:34;;;;;;;22.00;13.90;;;5.30;99.90;;;;;;4990634;28;20122;-61
2024/01/30 04:01:00;;;;;;;22.15;14.00;;;5.30;99.90;;;;;;4989300;28;20117;-61
2024/01/30 04:03:26;;;;;;;21.00;14.00;;;5.40;99.90;;;;;;4994354;28;20487;-61
2024/01/30 04:05:52;;;;;;;25.65;15.05;;;5.60;99.90;;;;;;4989064;28;20073;-61
2024/01/30 04:08:18;;;;;;;26.20;14.13;;;5.70;99.90;;;;;;4987851;28;20042;-62
2024/01/30 04:10:44;;;;;;;23.25;13.68;;;5.70;99.90;;;;;;4986984;28;20035;-62
2024/01/30 04:13:10;;;;;;;22.60;14.77;;;5.80;99.90;;;;;;4994666;28;20062;-61
2024/01/30 04:15:35;;;;;;;24.42;14.80;;;5.90;99.90;;;;;;4993333;28;20552;-62
2024/01/30 04:18:01;;;;;;;24.15;14.48;;;5.90;99.90;;;;;;4991089;28;20027;-61
2024/01/30 04:20:27;;;;;;;22.80;14.35;;;6.00;99.90;;;;;;4993117;28;20042;-61
2024/01/30 04:22:52;;;;;;;20.92;13.90;;;6.00;99.90;;;;;;4994632;28;20042;-61
2024/01/30 04:25:18;;;;;;;23.58;14.13;;;6.10;99.90;;;;;;4992410;28;20057;-61
2024/01/30 04:27:44;;;;;;;25.25;14.63;;;6.20;99.90;;;;;;4993620;28;20511;-62
2024/01/30 04:30:10;;;;;;;24.85;15.07;;;6.20;99.90;;;;;;4983822;28;20045;-61
2024/01/30 04:32:36;;;;;;;22.73;14.35;;;6.30;99.90;;;;;;4992510;28;20129;-62
2024/01/30 04:35:02;;;;;;;23.55;14.32;;;6.40;99.90;;;;;;4994300;28;20069;-61
2024/01/30 04:37:28;;;;;;;24.80;15.32;;;6.40;99.90;;;;;;4997300;28;20027;-62
2024/01/30 04:39:54;;;;;;;25.55;14.85;;;6.50;99.90;;;;;;4997669;28;20053;-62
2024/01/30 04:42:19;;;;;;;21.58;15.15;;;6.60;99.90;;;;;;4997237;28;20430;-61
2024/01/30 04:44:45;;;;;;;24.35;14.65;;;6.70;99.90;;;;;;4994568;28;20080;-62
2024/01/30 04:47:11;;;;;;;22.42;14.98;;;6.70;99.90;;;;;;4996041;28;20122;-61
2024/01/30 04:49:42;;;;;;;22.92;14.20;;;6.80;99.90;;;;;;4997534;28;20082;-61
2024/01/30 04:52:08;;;;;;;22.40;14.57;;;6.80;99.90;;;;;;4994869;28;20451;-62
2024/01/30 04:54:34;;;;;;;23.70;15.18;;;6.80;99.90;;;;;;4996355;28;20069;-62
2024/01/30 04:57:00;;;;;;;21.73;13.77;;;6.80;99.90;;;;;;4998388;28;20048;-61
2024/01/30 04:59:26;;;;;;;22.63;14.38;;;6.80;99.90;;;;;;4997616;28;20453;-61
2024/01/30 05:01:52;;;;;;;20.83;14.20;;;6.80;99.90;;;;;;4995100;28;20118;-61
2024/01/30 05:04:17;;;;;;;24.77;14.63;;;6.80;99.90;;;;;;4996735;28;20042;-61
2024/01/30 05:06:43;;;;;;;21.92;14.77;;;6.80;99.90;;;;;;4996778;28;20805;-61
2024/01/30 05:09:09;;;;;;;21.67;14.70;;;6.70;99.90;;;;;;4998151;28;20506;-61
2024/01/30 05:11:38;;;;;;;24.05;14.52;;;6.70;99.90;;;;;;4995916;28;20038;-62
2024/01/30 05:14:05;;;;;;;24.02;14.05;;;6.70;99.90;;;;;;4996996;28;20042;-62
2024/01/30 05:16:31;;;;;;;23.15;14.90;;;6.80;99.90;;;;;;4989604;28;20034;-62
2024/01/30 05:18:57;;;;;;;26.02;15.95;;;6.70;99.90;;;;;;4990419;28;20042;-61
2024/01/30 05:21:23;;;;;;;24.92;15.43;;;6.80;99.90;;;;;;4992280;28;20030;-61
2024/01/30 05:23:48;;;;;;;25.08;15.15;;;6.80;99.90;;;;;;4992942;28;20057;-62
2024/01/30 05:26:14;;;;;;;29.08;15.02;;;6.80;99.90;;;;;;4997276;28;20038;-62
2024/01/30 05:28:39;;;;;;;24.50;13.90;;;6.90;99.90;;;;;;4992811;28;20042;-61
2024/01/30 05:31:05;;;;;;;23.60;15.07;;;6.90;99.90;;;;;;4993871;28;20049;-61
2024/01/30 05:33:31;;;;;;;24.27;14.30;;;7.00;99.90;;;;;;4993616;28;20038;-61
2024/01/30 05:35:56;;;;;;;23.40;15.40;;;7.00;99.90;;;;;;4997641;28;20114;-61
2024/01/30 05:38:22;;;;;;;24.40;15.32;;;7.10;99.90;;;;;;4994021;28;20046;-61
2024/01/30 05:40:48;;;;;;;24.63;14.35;;;7.00;99.90;;;;;;4986378;28;20447;-61
2024/01/30 05:43:13;;;;;;;23.50;13.63;;;7.10;99.90;;;;;;4997994;28;20117;-61
2024/01/30 05:45:39;;;;;;;24.50;14.88;;;7.20;99.90;;;;;;4995285;28;20049;-61
2024/01/30 05:48:05;;;;;;;21.92;14.38;;;7.20;99.90;;;;;;4997817;28;20107;-61
2024/01/30 05:50:31;;;;;;;25.60;15.75;;;7.20;99.90;;;;;;4992107;28;20034;-61
2024/01/30 05:52:56;;;;;;;23.20;14.50;;;7.30;99.90;;;;;;4992721;28;20633;-61
2024/01/30 05:55:22;;;;;;;24.45;14.10;;;7.20;99.90;;;;;;4996099;28;20095;-61
2024/01/30 05:57:48;;;;;;;22.70;14.30;;;7.30;99.90;;;;;;4996793;28;20173;-61
2024/01/30 06:00:14;;;;;;;22.23;14.32;;;7.30;99.90;;;;;;4992303;28;20442;-62
2024/01/30 06:02:39;;;;;;;21.35;14.10;;;7.30;99.90;;;;;;4993321;28;20046;-62
2024/01/30 06:05:05;;;;;;;20.52;14.27;;;7.30;99.90;;;;;;4990099;28;20125;-62
2024/01/30 06:07:31;;;;;;;24.42;14.63;;;7.30;99.90;;;;;;4991869;28;20042;-62
2024/01/30 06:09:57;;;;;;;23.83;15.10;;;7.40;99.90;;;;;;4996323;28;20042;-62
2024/01/30 06:12:22;;;;;;;21.88;14.68;;;7.30;99.90;;;;;;4996316;28;20507;-61
2024/01/30 06:14:48;;;;;;;24.40;14.73;;;7.30;99.90;;;;;;4996213;28;20101;-61
2024/01/30 06:17:14;;;;;;;25.38;14.63;;;7.30;99.90;;;;;;4994914;28;20030;-61
2024/01/30 06:19:40;;;;;;;24.50;14.05;;;7.30;99.90;;;;;;4984707;28;20039;-62
2024/01/30 06:22:06;;;;;;;23.50;14.80;;;7.30;99.90;;;;;;4992227;28;20054;-62
2024/01/30 06:24:31;;;;;;;21.92;14.35;;;7.40;99.90;;;;;;4996163;28;20042;-62
2024/01/30 06:26:57;;;;;;;23.58;14.38;;;7.40;99.90;;;;;;4994272;28;20038;-62
2024/01/30 06:29:24;;;;;;;23.80;15.25;;;7.40;99.90;;;;;;4987870;28;20067;-62
2024/01/30 06:31:50;;;;;;;25.23;15.07;;;7.50;99.90;;;;;;4996622;28;20045;-62
2024/01/30 06:34:16;;;;;;;25.75;14.63;;;7.40;99.90;;;;;;4994665;28;20051;-61
2024/01/30 06:36:42;;;;;;;24.55;15.23;;;7.40;99.90;;;;;;4990907;28;20176;-61
2024/01/30 06:39:07;;;;;;;23.63;15.20;;;7.30;99.90;;;;;;4988785;28;20039;-62
2024/01/30 06:41:33;;;;;;;26.20;15.40;;;7.40;99.90;;;;;;4992097;28;20428;-62
2024/01/30 06:43:59;;;;;;;23.92;14.60;;;7.30;99.90;;;;;;4991452;28;20065;-62
2024/01/30 06:46:25;;;;;;;21.08;14.90;;;7.30;99.90;;;;;;4994820;28;20506;-61
2024/01/30 06:48:50;;;;;;;21.95;13.90;;;7.30;99.90;;;;;;4985204;28;20053;-62
2024/01/30 06:51:16;;;;;;;27.13;15.38;;;7.30;99.90;;;;;;4995795;28;20045;-61
2024/01/30 06:53:42;;;;;;;21.30;14.48;;;7.20;99.90;;;;;;4991017;28;20129;-62
2024/01/30 06:56:08;;;;;;;28.35;15.50;;;7.30;99.90;;;;;;4995008;28;20124;-62
2024/01/30 06:58:33;;;;;;;23.98;14.35;;;7.20;99.90;;;;;;4988734;28;20528;-62
2024/01/30 07:00:59;;;;;;;21.10;14.88;;;7.20;99.90;;;;;;4996733;28;20047;-61
2024/01/30 07:03:25;;;;;;;24.92;14.82;;;7.20;99.90;;;;;;4990895;28;20038;-62
2024/01/30 07:05:51;;;;;;;26.08;15.68;;;7.20;99.90;;;;;;4990097;28;20038;-61
2024/01/30 07:08:17;;;;;;;25.92;15.52;;;7.20;99.90;;;;;;4990018;28;20034;-61
2024/01/30 07:10:43;;;;;;;23.98;14.77;;;7.20;99.90;;;;;;4992934;28;20109;-61
2024/01/30 07:13:10;;;;;;;24.05;14.85;;;7.20;99.90;;;;;;4992875;28;20100;-62
2024/01/30 07:15:36;;;;;;;23.45;14.82;;;7.20;99.90;;;;;;4991634;28;20042;-61
2024/01/30 07:18:02;;;;;;;19.73;13.90;;;7.20;99.90;;;;;;4993931;28;20138;-62
2024/01/30 07:20:30;;;;;;;21.83;15.00;;;7.20;99.90;;;;;;4992551;28;20097;-61
2024/01/30 07:22:56;;;;;;;22.05;14.27;;;7.30;99.90;;;;;;4996028;28;20077;-62
2024/01/30 07:25:26;;;;;;;23.33;14.07;;;7.30;99.90;;;;;;4992729;28;20062;-62
2024/01/30 07:27:52;;;;;;;22.07;13.87;;;7.30;99.90;;;;;;4989691;28;20463;-61
2024/01/30 07:30:18;;;;;;;19.80;13.75;;;7.30;99.90;;;;;;4989321;28;20279;-61
2024/01/30 07:32:44;;;;;;;21.75;13.70;;;7.40;99.90;;;;;;4987213;28;20128;-61
2024/01/30 07:35:09;;;;;;;20.90;14.00;;;7.50;99.90;;;;;;4982529;28;20037;-61
2024/01/30 07:37:35;;;;;;;21.80;14.18;;;7.50;99.90;;;;;;4989726;28;20034;-61
2024/01/30 07:40:02;;;;;;;22.33;14.55;;;7.50;99.90;;;;;;4995539;28;20119;-62
2024/01/30 07:42:27;;;;;;;20.38;12.95;;;7.50;99.90;;;;;;4993077;28;20492;-61
2024/01/30 07:44:53;;;;;;;25.27;14.07;;;7.60;99.90;;;;;;4995491;28;20118;-61
2024/01/30 07:47:19;;;;;;;23.88;14.35;;;7.60;99.90;;;;;;4994125;28;20048;-61
2024/01/30 07:49:44;;;;;;;25.55;15.27;;;7.60;99.90;;;;;;4991444;28;20050;-61
2024/01/30 07:52:10;;;;;;;24.08;14.93;;;7.60;99.90;;;;;;4996667;28;20034;-61
2024/01/30 07:54:48;;;;;;;20.08;13.88;;;7.60;99.90;;;;;;4994283;28;20073;-61
2024/01/30 07:57:14;;;;;;;24.17;15.27;;;7.60;99.90;;;;;;4991152;28;20053;-61
2024/01/30 07:59:41;;;;;;;20.63;13.38;;;7.60;99.90;;;;;;4982876;28;20047;-61
2024/01/30 08:02:07;;;;;;;23.52;15.27;;;7.60;99.90;;;;;;4998097;28;20069;-61
2024/01/30 08:04:33;;;;;;;25.15;13.43;;;7.60;99.90;;;;;;4998885;28;20143;-61
2024/01/30 08:06:59;;;;;;;24.17;13.85;;;7.60;99.90;;;;;;4998869;28;20465;-61
2024/01/30 08:09:24;;;;;;;21.77;13.57;;;7.60;99.90;;;;;;4997848;28;20042;-61
2024/01/30 08:11:50;;;;;;;19.00;13.63;;;7.60;99.90;;;;;;4999313;28;20491;-61
2024/01/30 08:14:15;;;;;;;25.58;14.38;;;7.70;99.90;;;;;;4999814;28;20042;-61
2024/01/30 08:16:41;;;;;;;20.95;13.82;;;7.70;99.90;;;;;;4996767;28;20034;-61
2024/01/30 08:19:07;;;;;;;20.77;13.70;;;7.70;99.90;;;;;;5000018;28;20044;-61
2024/01/30 08:21:36;;;;;;;20.80;13.18;;;7.70;99.90;;;;;;4998911;28;20089;-61
2024/01/30 08:24:03;;;;;;;18.77;13.05;;;7.70;99.90;;;;;;4997046;28;20507;-61
2024/01/30 08:26:29;;;;;;;23.10;13.80;;;7.70;99.90;;;;;;4995544;28;20049;-61
2024/01/30 08:28:54;;;;;;;19.63;13.30;;;7.70;99.90;;;;;;5000049;28;20042;-61
2024/01/30 08:31:20;;;;;;;18.80;12.98;;;7.80;99.90;;;;;;4996359;28;20109;-61
2024/01/30 08:33:45;;;;;;;20.00;12.60;;;7.80;99.90;;;;;;4992594;28;20034;-61
2024/01/30 08:36:11;;;;;;;20.92;13.27;;;7.80;99.90;;;;;;4983126;28;20085;-61
2024/01/30 08:38:37;;;;;;;18.98;13.77;;;7.80;99.90;;;;;;4998420;28;20042;-62
2024/01/30 08:41:02;;;;;;;20.02;12.50;;;7.80;99.90;;;;;;4995986;28;20106;-61
2024/01/30 08:43:28;;;;;;;21.95;13.00;;;7.90;99.90;;;;;;4993945;28;20030;-62
2024/01/30 08:45:54;;;;;;;20.75;13.43;;;7.90;99.90;;;;;;4995195;28;20034;-61
2024/01/30 08:48:21;;;;;;;20.15;12.13;;;8.00;99.90;;;;;;4997981;28;20418;-61
2024/01/30 08:50:46;;;;;;;18.27;12.00;;;8.00;99.90;;;;;;4995457;28;20506;-61
2024/01/30 08:53:12;;;;;;;20.35;13.02;;;8.00;99.90;;;;;;4999679;28;20124;-61
2024/01/30 08:55:39;;;;;;;19.75;12.90;;;8.00;99.90;;;;;;4995894;28;20048;-61
2024/01/30 08:58:05;;;;;;;20.17;11.98;;;8.10;99.90;;;;;;4996691;28;20041;-62
2024/01/30 09:00:30;;;;;;;19.90;12.95;;;8.10;99.90;;;;;;4997975;28;20113;-61
2024/01/30 09:02:56;;;;;;;20.13;13.02;;;8.20;99.90;;;;;;4993452;28;20113;-61
2024/01/30 09:05:21;;;;;;;19.60;12.88;;;8.20;99.90;;;;;;4990796;28;20056;-62
2024/01/30 09:07:47;;;;;;;19.08;12.68;;;8.20;99.90;;;;;;4997424;28;20046;-61
2024/01/30 09:10:13;;;;;;;22.42;12.43;;;8.20;99.90;;;;;;4999463;28;20113;-62
2024/01/30 09:12:38;;;;;;;18.85;12.10;;;8.20;99.90;;;;;;4996850;28;20458;-62
2024/01/30 09:15:04;;;;;;;20.83;11.73;;;8.30;99.90;;;;;;4997387;28;20044;-61
2024/01/30 09:17:30;;;;;;;19.80;11.80;;;8.30;99.90;;;;;;4998065;28;20070;-62
2024/01/30 09:19:56;;;;;;;22.10;12.77;;;8.30;99.90;;;;;;4999440;28;20503;-62
2024/01/30 09:22:21;;;;;;;18.88;12.18;;;8.40;99.90;;;;;;4998425;28;20031;-62
2024/01/30 09:24:47;;;;;;;17.73;12.48;;;8.40;99.90;;;;;;4992369;28;20043;-62
2024/01/30 09:27:13;;;;;;;20.52;13.43;;;8.40;99.90;;;;;;4998798;28;20148;-62
2024/01/30 09:29:39;;;;;;;20.80;11.88;;;8.50;99.90;;;;;;4996698;28;20038;-62
2024/01/30 09:32:06;;;;;;;20.73;12.27;;;8.50;99.90;;;;;;4997688;28;20411;-62
2024/01/30 09:34:32;;;;;;;19.33;12.38;;;8.50;99.90;;;;;;4990934;28;20107;-62
2024/01/30 09:36:59;;;;;;;20.70;11.77;;;8.50;99.90;;;;;;4997189;28;20046;-62
2024/01/30 09:39:25;;;;;;;21.42;12.75;;;8.60;99.90;;;;;;4994513;28;20038;-62
2024/01/30 09:42:11;;;;;;;22.00;11.90;;;8.70;99.90;;;;;;4994248;28;20381;-62
2024/01/30 09:44:38;;;;;;;20.33;11.30;;;8.80;99.90;;;;;;4985582;28;20065;-62
2024/01/30 09:47:05;;;;;;;16.88;11.90;;;8.80;99.90;;;;;;4997640;28;20069;-62
2024/01/30 09:49:35;;;;;;;18.42;10.80;;;8.80;99.90;;;;;;4997550;28;20034;-62
2024/01/30 09:52:02;;;;;;;19.33;11.82;;;8.80;99.90;;;;;;4991360;28;20089;-62
2024/01/30 09:54:30;;;;;;;17.77;10.90;;;8.90;99.90;;;;;;4991350;28;20030;-62
2024/01/30 09:56:56;;;;;;;16.45;11.68;;;8.80;99.90;;;;;;4996390;28;20042;-62
2024/01/30 09:59:22;;;;;;;17.65;11.10;;;8.90;99.90;;;;;;4997398;28;20042;-62
2024/01/30 10:01:48;;;;;;;18.85;11.13;;;9.00;99.90;;;;;;4997683;28;20045;-62
2024/01/30 10:04:13;;;;;;;18.90;12.30;;;9.00;99.90;;;;;;4995510;28;20030;-62
2024/01/30 10:06:40;;;;;;;22.98;11.57;;;9.00;99.90;;;;;;4996713;28;20050;-62
2024/01/30 10:09:06;;;;;;;19.52;11.40;;;9.00;99.90;;;;;;4999434;28;20564;-62
2024/01/30 10:11:31;;;;;;;20.85;11.15;;;9.10;99.90;;;;;;4997488;28;20042;-62
2024/01/30 10:13:57;;;;;;;16.30;10.60;;;9.20;99.90;;;;;;4995111;28;20046;-62
2024/01/30 10:16:23;;;;;;;17.27;11.70;;;9.20;99.90;;;;;;4996686;28;20113;-62
2024/01/30 10:18:50;;;;;;;17.92;10.80;;;9.30;99.90;;;;;;4990533;28;20491;-62
2024/01/30 10:21:16;;;;;;;19.55;10.93;;;9.30;99.90;;;;;;4995464;28;20093;-62
2024/01/30 10:23:44;;;;;;;18.15;10.70;;;9.40;99.90;;;;;;4994827;28;20050;-62
2024/01/30 10:26:10;;;;;;;21.27;11.45;;;9.40;99.90;;;;;;4998422;28;20641;-62
2024/01/30 10:28:36;;;;;;;17.42;10.15;;;9.50;99.90;;;;;;4996679;28;20662;-62
2024/01/30 10:31:05;;;;;;;16.50;11.82;;;9.50;99.90;;;;;;4997484;28;20074;-62
2024/01/30 10:33:31;;;;;;;15.13;10.38;;;9.60;99.90;;;;;;4989100;28;20037;-62
2024/01/30 10:36:04;;;;;;;16.20;10.68;;;9.70;99.90;;;;;;4997896;28;20030;-62
2024/01/30 10:38:31;;;;;;;19.48;11.55;;;9.70;99.90;;;;;;4988373;28;20141;-62
2024/01/30 10:40:58;;;;;;;17.42;10.13;;;9.70;99.90;;;;;;4995877;28;20388;-62
2024/01/30 10:43:35;;;;;;;20.08;10.98;;;9.70;99.90;;;;;;4992034;28;20034;-62
2024/01/30 10:46:12;;;;;;;18.25;10.57;;;9.80;99.90;;;;;;4995561;28;20125;-62
2024/01/30 10:48:44;;;;;;;16.95;10.85;;;9.80;99.90;;;;;;4993025;28;20117;-62
2024/01/30 10:51:10;;;;;;;22.23;10.05;;;9.80;99.90;;;;;;4991404;28;20037;-62
2024/01/30 10:53:37;;;;;;;17.35;10.48;;;9.90;99.90;;;;;;4994789;28;20038;-61
2024/01/30 10:56:04;;;;;;;20.23;10.50;;;9.90;99.90;;;;;;4992481;28;20038;-62
2024/01/30 10:58:30;;;;;;;18.05;10.10;;;9.90;99.90;;;;;;4996415;28;20038;-62
2024/01/30 11:00:56;;;;;;;18.80;9.93;;;9.90;99.90;;;;;;4993059;28;20037;-62
2024/01/30 11:03:23;;;;;;;19.70;10.25;;;10.00;99.90;;;;;;4987123;28;20109;-61
2024/01/30 11:05:52;;;;;;;16.02;10.05;;;10.00;99.90;;;;;;4987329;28;20045;-62
2024/01/30 11:08:25;;;;;;;17.63;11.38;;;10.00;99.90;;;;;;4989128;28;20189;-62
2024/01/30 11:10:57;;;;;;;21.02;10.55;;;10.00;99.90;;;;;;4984731;28;20050;-62
2024/01/30 11:13:30;;;;;;;20.77;11.05;;;10.00;99.90;;;;;;4987764;28;20057;-62
2024/01/30 11:16:00;;;;;;;17.10;11.27;;;10.10;99.90;;;;;;4985807;28;20035;-61
2024/01/30 11:18:28;;;;;;;22.60;11.17;;;10.10;99.90;;;;;;4991727;28;20114;-62
2024/01/30 11:20:56;;;;;;;16.70;10.65;;;10.10;99.90;;;;;;4992050;28;20050;-62
2024/01/30 11:23:22;;;;;;;20.65;11.13;;;10.20;99.90;;;;;;4994094;28;20162;-62
2024/01/30 11:25:48;;;;;;;19.38;10.35;;;10.20;99.90;;;;;;4986398;28;20039;-62
2024/01/30 11:28:18;;;;;;;18.95;11.27;;;10.20;99.90;;;;;;4995855;28;20048;-62
2024/01/30 11:30:44;;;;;;;18.15;11.05;;;10.20;99.90;;;;;;4988470;28;20031;-62
2024/01/30 11:33:12;;;;;;;18.83;11.10;;;10.20;99.90;;;;;;4997600;28;20034;-62
2024/01/30 11:35:39;;;;;;;15.63;10.02;;;10.20;99.90;;;;;;4989945;28;20050;-62
2024/01/30 11:38:06;;;;;;;19.48;10.90;;;10.20;99.90;;;;;;4996450;28;20130;-62
2024/01/30 11:40:33;;;;;;;18.15;10.75;;;10.30;99.90;;;;;;4991867;28;20042;-62
2024/01/30 11:43:00;;;;;;;19.98;10.30;;;10.20;99.90;;;;;;4997078;28;20043;-62
2024/01/30 11:45:28;;;;;;;17.92;10.35;;;10.30;99.90;;;;;;4987408;28;20034;-62
2024/01/30 11:47:55;;;;;;;18.67;10.98;;;10.30;99.90;;;;;;4987426;28;20062;-61
2024/01/30 11:50:21;;;;;;;18.63;11.45;;;10.30;99.90;;;;;;4992754;28;20085;-61
2024/01/30 11:52:49;;;;;;;20.00;11.18;;;10.30;99.90;;;;;;4996234;28;20440;-61
2024/01/30 11:55:15;;;;;;;21.00;12.30;;;10.30;99.90;;;;;;4989983;28;20129;-61
2024/01/30 11:57:41;;;;;;;20.05;11.63;;;10.40;99.90;;;;;;4993021;28;20050;-61
2024/01/30 12:00:15;;;;;;;19.63;11.57;;;10.30;99.90;;;;;;4990664;28;20152;-61
2024/01/30 12:02:41;;;;;;;19.23;12.35;;;10.30;99.90;;;;;;4991163;28;20038;-61
2024/01/30 12:05:07;;;;;;;20.65;11.88;;;10.30;99.90;;;;;;4993053;28;20510;-61
2024/01/30 12:07:33;;;;;;;21.80;12.48;;;10.30;99.90;;;;;;4992232;28;20039;-61
2024/01/30 12:09:59;;;;;;;19.17;12.60;;;10.40;99.90;;;;;;4991628;28;20042;-61
2024/01/30 12:12:26;;;;;;;25.67;12.65;;;10.40;99.90;;;;;;4991687;28;20105;-61
2024/01/30 12:14:52;;;;;;;22.67;12.70;;;10.40;99.90;;;;;;4990124;28;20058;-61
2024/01/30 12:17:30;;;;;;;20.23;12.48;;;10.30;99.90;;;;;;4990311;28;20125;-61
2024/01/30 12:20:11;;;;;;;23.73;13.13;;;10.40;99.90;;;;;;4990199;28;20121;-61
2024/01/30 12:22:44;;;;;;;19.92;12.80;;;10.40;99.90;;;;;;4994792;28;20077;-61
2024/01/30 12:25:11;;;;;;;21.42;12.60;;;10.40;99.90;;;;;;4992427;28;20137;-61
2024/01/30 12:27:38;;;;;;;26.25;12.70;;;10.40;99.90;;;;;;4991216;28;20105;-61
2024/01/30 12:30:11;;;;;;;17.98;11.77;;;10.40;99.90;;;;;;4984983;28;20076;-61
2024/01/30 12:32:44;;;;;;;18.88;11.77;;;10.50;99.90;;;;;;4982772;28;20062;-61